CDT,Max TemperatureF,Mean TemperatureF,Min TemperatureF,Max Dew PointF,MeanDew PointF,Min DewpointF,Max Humidity, Mean Humidity, Min Humidity, Max Sea Level PressureIn, Mean Sea Level PressureIn, Min Sea Level PressureIn, Max VisibilityMiles, Mean VisibilityMiles, Min VisibilityMiles, Max Wind SpeedMPH, Mean Wind SpeedMPH, Max Gust SpeedMPH,PrecipitationIn, CloudCover, Events, WindDirDegrees
2011-10-1,60,53,46,45,40,36,93,60,39,30.16,30.09,30.00,10,10,10,16,8,23,0.00,0,,344
2011-10-2,66,55,44,45,40,34,93,61,32,30.19,30.14,30.12,10,10,10,13,6,18,0.00,0,,347
2011-10-3,69,55,41,46,40,34,100,62,28,30.25,30.20,30.17,10,10,10,10,3,,0.00,0,,330
2011-10-4,75,60,46,50,46,45,100,64,34,30.30,30.24,30.20,10,10,10,8,4,,0.00,0,,22
2011-10-5,78,64,50,57,52,46,100,67,32,30.28,30.22,30.17,10,10,7,6,4,,0.00,0,,71
2011-10-6,78,64,51,59,54,52,100,70,39,30.29,30.24,30.19,10,10,10,10,4,16,0.00,0,,84
2011-10-7,75,65,55,54,53,52,88,63,44,30.37,30.31,30.27,10,10,10,10,7,,0.00,0,,94
2011-10-8,77,68,59,55,52,48,73,61,47,30.38,30.32,30.27,10,10,10,16,8,26,0.00,0,,93
2011-10-9,71,66,60,55,51,45,73,60,52,30.30,30.24,30.17,10,10,10,13,8,25,0.00,2,,87
2011-10-10,73,68,60,59,57,54,94,69,53,30.15,30.08,30.02,10,10,5,16,9,32,0.00,4,Rain,86
2011-10-11,62,60,59,63,61,59,100,97,94,29.99,29.95,29.90,10,8,2,12,6,17,0.06,8,Rain,60
2011-10-12,64,62,59,61,60,59,100,94,88,29.91,29.85,29.78,10,9,2,6,1,,0.00,8,,82
2011-10-13,69,64,60,63,58,52,100,81,53,29.76,29.69,29.65,10,8,3,18,7,25,0.12,7,Rain,241
2011-10-14,77,64,50,54,46,37,100,62,24,29.94,29.88,29.79,10,10,10,18,6,23,0.00,0,,257
2011-10-15,75,62,50,52,42,34,100,54,22,30.13,30.07,30.00,10,10,10,15,5,16,0.00,1,,291
2011-10-16,82,64,46,50,45,41,93,55,23,30.17,30.10,30.02,10,10,10,13,3,16,0.00,0,,217
2011-10-17,82,68,53,55,52,50,88,56,37,30.02,29.96,29.87,10,10,10,10,5,,0.00,0,,217
2011-10-18,77,68,59,63,57,52,88,71,50,29.83,29.72,29.58,10,10,10,12,5,16,0.00,2,Rain,185
2011-10-19,51,48,44,50,42,37,100,83,62,29.78,29.65,29.58,10,9,4,22,12,30,0.00,8,,291
2011-10-20,57,49,41,43,37,34,93,69,41,30.01,29.91,29.80,10,10,10,22,12,25,0.00,5,Rain,261
2011-10-21,60,48,35,41,36,32,100,68,36,30.18,30.13,30.08,10,10,10,13,4,17,0.00,0,,275
2011-10-22,64,50,35,45,37,32,100,67,30,30.19,30.14,30.10,10,9,0,9,2,,0.00,1,Fog,10
2011-10-23,66,52,39,45,39,36,100,66,32,30.13,30.09,30.05,10,10,10,8,3,,0.00,1,,88
2011-10-24,71,60,50,54,49,43,100,73,35,30.21,30.15,30.11,10,9,1,7,3,,0.00,2,,346
2011-10-25,75,60,44,54,44,34,100,66,22,30.26,30.20,30.12,10,9,3,7,1,,0.00,0,,146
2011-10-26,77,64,50,46,43,37,82,52,26,30.12,30.05,29.96,10,10,10,14,6,18,0.00,0,,204
2011-10-27,73,63,53,59,52,46,100,73,53,29.98,29.93,29.87,10,10,10,14,7,20,0.00,4,Rain,247
2011-10-28,51,48,44,52,50,45,100,97,93,30.02,29.96,29.94,10,9,4,13,6,17,0.07,8,Rain,13
2011-10-29,57,46,35,43,35,30,100,69,38,30.17,30.12,30.06,10,10,7,16,9,22,0.00,1,,353
2011-10-30,59,46,32,37,33,28,100,65,31,30.29,30.22,30.17,10,10,7,9,4,,0.00,0,,118
2011-10-31,64,50,35,37,34,32,87,53,32,30.22,30.19,30.15,10,10,7,9,5,,0.00,0,,159